X  Chiuso Dati meteorologici dell'aviazione (METAR)     YMML Melbourne International Airport
Temperatura
19°C Temperatura
10°C Punto di rugiada
56% Umidità



Vento
10 M/S
22 MPH
35 KM/O
19 KTS



20°
NNE
Condizioni attuali

Chiaro Chiaro
Pressione 1009.82 (hPa) - 29.82 (inHg)
Visibilità 6 (miglio) - 9.7 (km)
Aeroporto
Codice-Aeroporto YMML

Posizione: Melbourne International Airport
Distanza: 18 (km)

Metar:
YMML 300330Z 02019KT CAVOK 19/10 Q1010

Ore: 30-05-2024 13:30 AEST